Time;durP1;ratioP1;P1;durP2;ratioP2;P2;SDS_P1;SDS_P2;PMS_P1;PMS_P2;Temp;Humidity;BMP_temperature;BMP_pressure;BME280_temperature;BME280_humidity;BME280_pressure;Samples;Min_cycle;Max_cycle;Signal;HPM_P1;HPM_P2
2021/03/29 00:01:18;;;;;;;59.70;25.70;;;;;;;1.57;67.42;99793.47;115242;1197;23115;-76
2021/03/29 00:03:46;;;;;;;50.70;23.77;;;;;;;1.57;67.09;99788.09;115231;1197;23104;-76
2021/03/29 00:06:13;;;;;;;51.75;23.65;;;;;;;1.55;67.11;99793.62;115172;1196;23175;-76
2021/03/29 00:08:41;;;;;;;50.10;25.00;;;;;;;1.54;67.62;99791.95;115210;1202;23139;-76
2021/03/29 00:11:11;;;;;;;52.75;25.15;;;;;;;1.55;67.10;99790.09;115049;1197;23079;-77
2021/03/29 00:13:39;;;;;;;47.67;23.93;;;;;;;1.51;67.29;99793.08;115137;1203;23078;-76
2021/03/29 00:16:07;;;;;;;52.37;24.30;;;;;;;1.51;67.33;99793.08;115132;1196;24701;-76
2021/03/29 00:18:34;;;;;;;49.30;22.40;;;;;;;1.49;67.25;99786.19;115243;1197;23164;-76
2021/03/29 00:21:06;;;;;;;53.97;24.50;;;;;;;1.46;67.26;99792.69;115228;1196;23079;-77
2021/03/29 00:23:34;;;;;;;48.60;22.27;;;;;;;1.46;67.59;99791.86;115221;1197;23231;-76
2021/03/29 00:26:07;;;;;;;48.65;23.35;;;;;;;1.44;67.50;99788.48;115306;1202;26573;-76
2021/03/29 00:28:35;;;;;;;53.80;23.83;;;;;;;1.46;67.65;99795.38;114945;1202;24751;-76
2021/03/29 00:31:05;;;;;;;43.37;21.50;;;;;;;1.46;67.92;99792.69;115160;1201;23228;-76
2021/03/29 00:33:34;;;;;;;48.15;22.40;;;;;;;1.49;67.44;99796.93;115363;1203;23119;-76
2021/03/29 00:36:02;;;;;;;46.05;23.00;;;;;;;1.52;67.92;99799.28;115247;1202;27310;-76
2021/03/29 00:38:30;;;;;;;49.57;21.37;;;;;;;1.55;67.99;99809.72;115186;1196;24561;-76
2021/03/29 00:41:01;;;;;;;45.73;21.70;;;;;;;1.57;67.29;99809.58;115123;1202;23180;-76
2021/03/29 00:43:32;;;;;;;44.77;21.60;;;;;;;1.59;67.82;99804.89;114958;1196;23217;-76
2021/03/29 00:46:02;;;;;;;52.80;23.35;;;;;;;1.61;67.21;99809.13;115174;1202;26687;-76
2021/03/29 00:48:32;;;;;;;45.20;22.60;;;;;;;1.62;67.61;99809.96;115217;1196;23112;-77
2021/03/29 00:51:10;;;;;;;47.87;21.07;;;;;;;1.63;67.64;99812.50;115192;1202;25949;-76
2021/03/29 00:53:45;;;;;;;51.63;21.30;;;;;;;1.64;67.31;99803.42;115204;1202;23096;-76
2021/03/29 00:56:13;;;;;;;44.03;20.70;;;;;;;1.66;67.34;99808.64;115174;1197;23089;-76
2021/03/29 00:58:42;;;;;;;41.00;20.10;;;;;;;1.66;67.34;99814.02;115151;1202;25959;-76
2021/03/29 01:01:19;;;;;;;40.65;20.63;;;;;;;1.67;66.98;99808.49;115249;1202;23192;-76
2021/03/29 01:03:53;;;;;;;44.20;21.75;;;;;;;1.68;66.84;99817.38;114971;1196;23985;-76
2021/03/29 01:06:23;;;;;;;46.23;21.73;;;;;;;1.66;67.46;99814.84;115062;1202;23102;-76
2021/03/29 01:08:56;;;;;;;44.40;21.70;;;;;;;1.63;67.08;99814.31;115214;1202;26580;-77
2021/03/29 01:11:30;;;;;;;47.17;21.53;;;;;;;1.63;67.59;99819.69;114950;1202;23116;-76
2021/03/29 01:14:17;;;;;;;50.63;23.57;;;;;;;1.62;67.46;99810.80;114997;1200;23101;-76
2021/03/29 01:16:50;;;;;;;55.67;25.30;;;;;;;1.55;67.59;99807.03;115190;1199;26172;-76
2021/03/29 01:19:36;;;;;;;57.40;25.70;;;;;;;1.51;68.24;99816.41;115146;1200;23217;-76
2021/03/29 01:22:09;;;;;;;48.65;22.35;;;;;;;1.48;67.49;99808.65;114906;1200;23208;-76
2021/03/29 01:25:01;;;;;;;44.93;22.80;;;;;;;1.46;67.88;99813.33;115123;1197;23147;-77
2021/03/29 01:27:42;;;;;;;49.90;22.80;;;;;;;1.45;67.69;99804.45;115083;1202;23157;-76
2021/03/29 01:30:11;;;;;;;47.03;21.77;;;;;;;1.44;67.44;99812.64;115281;1201;26150;-77
2021/03/29 01:32:40;;;;;;;47.73;22.80;;;;;;;1.44;67.54;99813.48;115179;1196;23108;-76
2021/03/29 01:35:29;;;;;;;49.18;24.53;;;;;;;1.47;67.96;99815.87;115245;1200;28296;-76
2021/03/29 01:37:58;;;;;;;53.93;23.60;;;;;;;1.47;67.95;99817.69;115036;1200;23126;-77
2021/03/29 01:40:28;;;;;;;47.83;22.15;;;;;;;1.45;68.14;99817.00;115232;1196;25987;-76
2021/03/29 01:42:57;;;;;;;45.93;23.97;;;;;;;1.39;68.10;99815.77;115187;1202;23103;-77
2021/03/29 01:45:25;;;;;;;48.53;21.28;;;;;;;1.35;68.09;99806.35;115244;1200;23109;-76
2021/03/29 01:47:52;;;;;;;46.63;21.53;;;;;;;1.34;67.91;99810.02;115190;1200;23292;-76
2021/03/29 01:50:24;;;;;;;48.47;20.33;;;;;;;1.35;67.60;99813.53;115206;1197;23154;-76
2021/03/29 01:52:52;;;;;;;50.33;22.27;;;;;;;1.35;68.25;99813.53;115142;1201;23225;-76
2021/03/29 01:55:19;;;;;;;51.23;23.93;;;;;;;1.31;68.39;99818.36;114993;1200;23151;-76
2021/03/29 01:57:46;;;;;;;53.65;24.35;;;;;;;1.27;68.94;99819.67;115124;1202;23115;-76
2021/03/29 02:00:19;;;;;;;51.57;24.17;;;;;;;1.24;68.23;99810.09;115115;1197;23121;-76
2021/03/29 02:02:46;;;;;;;47.17;21.77;;;;;;;1.24;68.94;99807.41;115226;1197;23374;-76
2021/03/29 02:05:16;;;;;;;46.63;23.37;;;;;;;1.26;69.14;99807.27;115130;1196;23116;-76
2021/03/29 02:07:45;;;;;;;53.07;24.80;;;;;;;1.26;69.12;99812.64;115216;1200;23086;-76
2021/03/29 02:10:15;;;;;;;43.30;22.83;;;;;;;1.27;69.17;99809.77;115217;1200;23844;-76
2021/03/29 02:12:44;;;;;;;47.80;22.55;;;;;;;1.28;68.97;99803.42;115286;1197;23086;-76
2021/03/29 02:15:19;;;;;;;50.10;23.60;;;;;;;1.28;68.72;99807.95;115225;1200;23337;-76
2021/03/29 02:17:50;;;;;;;49.27;21.77;;;;;;;1.29;69.34;99798.89;115146;1202;23360;-76
2021/03/29 02:20:19;;;;;;;50.55;23.60;;;;;;;1.30;68.54;99796.06;115235;1197;25981;-76
2021/03/29 02:22:50;;;;;;;49.45;21.83;;;;;;;1.30;68.96;99801.42;115255;1202;24697;-76
2021/03/29 02:25:19;;;;;;;48.93;23.20;;;;;;;1.29;68.81;99805.13;115253;1197;23118;-76
2021/03/29 02:27:48;;;;;;;49.23;24.15;;;;;;;1.28;68.75;99802.59;115230;1201;23116;-76
2021/03/29 02:30:19;;;;;;;49.90;23.30;;;;;;;1.29;69.04;99813.17;114963;1203;24891;-76
2021/03/29 02:32:48;;;;;;;51.90;24.47;;;;;;;1.29;68.92;99810.49;115028;1202;23733;-76
2021/03/29 02:35:19;;;;;;;46.53;23.03;;;;;;;1.28;69.07;99806.11;115087;1197;23086;-76
2021/03/29 02:37:51;;;;;;;52.37;23.60;;;;;;;1.26;69.39;99800.05;115058;1202;24749;-76
2021/03/29 02:40:20;;;;;;;49.00;22.03;;;;;;;1.28;68.98;99803.42;115056;1196;23147;-76
2021/03/29 02:42:49;;;;;;;55.07;23.03;;;;;;;1.29;69.30;99791.70;115079;1201;24727;-76
2021/03/29 02:45:18;;;;;;;53.50;24.40;;;;;;;1.33;68.63;99797.61;115089;1199;24755;-76
2021/03/29 02:47:47;;;;;;;50.73;23.07;;;;;;;1.38;68.55;99797.14;115083;1202;23144;-76
2021/03/29 02:50:23;;;;;;;58.10;24.60;;;;;;;1.39;68.66;99799.67;115150;1196;23114;-76
2021/03/29 02:52:59;;;;;;;54.77;23.83;;;;;;;1.44;68.98;99804.59;115305;1202;23131;-76
2021/03/29 02:55:28;;;;;;;54.53;25.33;;;;;;;1.48;68.69;99804.11;115248;1200;23548;-76
2021/03/29 02:57:59;;;;;;;51.25;24.23;;;;;;;1.50;68.98;99802.11;115055;1202;23128;-76
2021/03/29 03:00:27;;;;;;;53.07;23.33;;;;;;;1.53;68.68;99808.20;115237;1197;23178;-76
2021/03/29 03:02:58;;;;;;;50.85;24.05;;;;;;;1.51;68.58;99803.81;115234;1199;23127;-76
2021/03/29 03:05:28;;;;;;;48.83;23.10;;;;;;;1.53;69.80;99809.03;115185;1202;23185;-76
2021/03/29 03:07:56;;;;;;;57.50;25.65;;;;;;;1.55;69.30;99806.20;115104;1199;24711;-76
2021/03/29 03:10:24;;;;;;;48.50;21.20;;;;;;;1.58;69.09;99811.27;115258;1199;23127;-76
2021/03/29 03:12:52;;;;;;;49.13;22.67;;;;;;;1.61;69.53;99808.26;115224;1202;23103;-76
2021/03/29 03:15:24;;;;;;;52.73;23.63;;;;;;;1.62;68.92;99809.96;115075;1199;23163;-76
2021/03/29 03:17:52;;;;;;;48.25;23.05;;;;;;;1.66;68.98;99800.59;115221;1202;23124;-76
2021/03/29 03:20:19;;;;;;;54.00;23.30;;;;;;;1.70;69.35;99801.98;115198;1200;23109;-77
2021/03/29 03:22:55;;;;;;;51.37;23.60;;;;;;;1.72;68.91;99808.05;115008;1199;23111;-76
2021/03/29 03:25:27;;;;;;;47.47;22.57;;;;;;;1.74;68.62;99815.95;115369;1199;23079;-76
2021/03/29 03:27:57;;;;;;;50.80;23.10;;;;;;;1.75;68.77;99817.62;115358;1196;23240;-76
2021/03/29 03:30:25;;;;;;;;;;;;;;;1.73;68.59;99820.45;115153;1205;23220;-76
2021/03/29 03:32:53;;;;;;;53.77;23.27;;;;;;;1.68;69.18;99812.88;115193;1202;21773;-76
2021/03/29 03:35:24;;;;;;;52.23;24.10;;;;;;;1.70;69.22;99808.20;115279;1202;23111;-76
2021/03/29 03:37:54;;;;;;;56.65;24.40;;;;;;;1.72;69.45;99810.73;115176;1197;25990;-76
2021/03/29 03:40:23;;;;;;;62.23;26.67;;;;;;;1.77;69.35;99807.56;115182;1202;24850;-76
2021/03/29 03:42:53;;;;;;;58.15;27.23;;;;;;;1.82;68.98;99807.94;115386;1199;26118;-76
2021/03/29 03:45:24;;;;;;;47.70;24.60;;;;;;;1.88;68.93;99807.34;115215;1200;24723;-76
2021/03/29 03:47:53;;;;;;;52.93;24.87;;;;;;;1.92;68.91;99800.64;115266;1200;27172;-76
2021/03/29 03:50:21;;;;;;;57.40;24.98;;;;;;;1.99;68.29;99809.77;115287;1197;27317;-76
2021/03/29 03:52:50;;;;;;;54.83;25.63;;;;;;;2.04;68.04;99801.25;115181;1200;23221;-76
2021/03/29 03:55:17;;;;;;;52.60;24.83;;;;;;;2.08;67.78;99794.55;115374;1197;24878;-76
2021/03/29 03:57:45;;;;;;;54.27;25.17;;;;;;;2.12;67.78;99801.28;114894;1200;23132;-76
2021/03/29 04:00:15;;;;;;;55.53;26.27;;;;;;;2.15;67.57;99800.14;115296;1200;23086;-77
2021/03/29 04:02:44;;;;;;;53.40;24.87;;;;;;;2.17;67.26;99804.34;115001;1200;23106;-76
2021/03/29 04:05:15;;;;;;;57.80;25.48;;;;;;;2.20;67.24;99800.52;114957;1200;23125;-77
2021/03/29 04:07:44;;;;;;;53.75;25.50;;;;;;;2.23;67.61;99803.73;115173;1197;25958;-76
2021/03/29 04:10:36;;;;;;;55.75;25.40;;;;;;;2.25;67.19;99801.72;115234;1202;23086;-76
2021/03/29 04:13:07;;;;;;;52.43;22.77;;;;;;;2.25;67.55;99806.27;115161;1197;23098;-76
2021/03/29 04:15:34;;;;;;;49.70;24.53;;;;;;;2.23;67.54;99810.92;115177;1199;23307;-77
2021/03/29 04:18:01;;;;;;;58.55;27.80;;;;;;;2.25;67.91;99817.02;115087;1200;26114;-76
2021/03/29 04:20:28;;;;;;;46.87;22.07;;;;;;;2.26;67.71;99811.45;114963;1197;24734;-76
2021/03/29 04:22:56;;;;;;;50.70;23.77;;;;;;;2.28;67.66;99812.17;115063;1200;23116;-76
2021/03/29 04:25:23;;;;;;;56.20;24.90;;;;;;;2.29;67.61;99810.31;115112;1202;23153;-76
2021/03/29 04:27:50;;;;;;;55.33;23.97;;;;;;;2.32;67.81;99815.38;114953;1199;23210;-77
2021/03/29 04:30:18;;;;;;;49.40;24.80;;;;;;;2.31;67.72;99816.38;115170;1202;23113;-78
2021/03/29 04:32:49;;;;;;;52.75;25.35;;;;;;;2.30;68.07;99811.15;115166;1200;23548;-76
2021/03/29 04:35:17;;;;;;;51.35;24.70;;;;;;;2.33;68.21;99825.11;115404;1200;23131;-76
2021/03/29 04:37:44;;;;;;;53.25;25.00;;;;;;;2.33;68.00;99829.66;114866;1200;23136;-76
2021/03/29 04:40:12;;;;;;;55.43;25.30;;;;;;;2.33;68.30;99827.80;115194;1200;23135;-76
2021/03/29 04:42:39;;;;;;;64.23;27.57;;;;;;;2.36;68.84;99835.56;115136;1202;24755;-77
2021/03/29 04:45:07;;;;;;;53.00;24.33;;;;;;;2.40;68.60;99833.40;114956;1200;23240;-76
2021/03/29 04:47:35;;;;;;;53.63;26.57;;;;;;;2.41;68.23;99841.31;115127;1202;23170;-76
2021/03/29 04:50:03;;;;;;;50.75;25.55;;;;;;;2.42;68.29;99840.29;115112;1200;23344;-76
2021/03/29 04:52:30;;;;;;;52.13;26.08;;;;;;;2.39;68.49;99837.08;115274;1200;23132;-76
2021/03/29 04:54:58;;;;;;;60.60;27.20;;;;;;;2.39;68.32;99834.39;114796;1200;23098;-77
2021/03/29 04:57:24;;;;;;;66.00;29.03;;;;;;;2.35;68.31;99830.34;114938;1202;23102;-76
2021/03/29 04:59:51;;;;;;;55.27;26.53;;;;;;;2.36;68.30;99845.48;115013;1200;24950;-77
2021/03/29 05:02:18;;;;;;;56.10;26.73;;;;;;;2.37;68.50;99839.08;115067;1199;27378;-77
2021/03/29 05:04:45;;;;;;;58.90;27.70;;;;;;;2.38;68.24;99838.92;115171;1202;27204;-77
2021/03/29 05:07:13;;;;;;;56.10;26.27;;;;;;;2.43;68.43;99833.09;114870;1203;26806;-77
2021/03/29 05:09:40;;;;;;;61.30;27.70;;;;;;;2.45;68.42;99839.14;115138;1199;23116;-77
2021/03/29 05:12:11;;;;;;;58.50;30.80;;;;;;;2.47;68.54;99832.59;114873;1203;23260;-77
2021/03/29 05:14:40;;;;;;;61.00;31.70;;;;;;;2.51;68.63;99830.43;115169;1201;25958;-77
2021/03/29 05:17:08;;;;;;;67.10;30.30;;;;;;;2.57;69.07;99837.05;114909;1200;27020;-77
2021/03/29 05:19:36;;;;;;;53.57;25.63;;;;;;;2.66;69.24;99841.45;115230;1202;23211;-77
2021/03/29 05:22:04;;;;;;;58.10;26.77;;;;;;;2.72;68.72;99830.05;115116;1202;24929;-77
2021/03/29 05:24:31;;;;;;;58.15;27.15;;;;;;;2.77;68.41;99822.34;115141;1200;23221;-77
2021/03/29 05:26:58;;;;;;;57.87;28.43;;;;;;;2.84;68.48;99825.23;114960;1200;23250;-77
2021/03/29 05:29:28;;;;;;;53.97;26.93;;;;;;;2.87;68.20;99824.92;114945;1202;23102;-77
2021/03/29 05:31:56;;;;;;;62.95;28.20;;;;;;;2.90;68.56;99835.34;114941;1200;23124;-77
2021/03/29 05:34:24;;;;;;;59.27;27.40;;;;;;;2.95;68.37;99829.48;114991;1202;23246;-77
2021/03/29 05:36:55;;;;;;;58.75;27.05;;;;;;;2.99;68.29;99831.70;115277;1202;23103;-77
2021/03/29 05:39:22;;;;;;;62.13;26.40;;;;;;;3.04;68.02;99844.66;115166;1201;25174;-77
2021/03/29 05:41:49;;;;;;;65.93;28.87;;;;;;;3.09;68.06;99842.31;115071;1202;27210;-77
2021/03/29 05:44:19;;;;;;;52.90;25.90;;;;;;;3.15;68.34;99844.38;115023;1199;23112;-77
2021/03/29 05:46:47;;;;;;;61.60;26.93;;;;;;;3.21;68.15;99840.19;115176;1199;23143;-77
2021/03/29 05:49:14;;;;;;;64.43;27.03;;;;;;;3.28;68.09;99843.91;115140;1202;23324;-76
2021/03/29 05:51:41;;;;;;;57.90;26.50;;;;;;;3.33;67.71;99856.86;114922;1200;23117;-77
2021/03/29 05:54:09;;;;;;;54.13;26.43;;;;;;;3.38;67.37;99858.08;115090;1199;23093;-77
2021/03/29 05:56:39;;;;;;;51.30;26.40;;;;;;;3.42;66.82;99862.13;115041;1199;26117;-76
2021/03/29 05:59:11;;;;;;;59.20;26.70;;;;;;;3.47;67.06;99864.33;115192;1200;23091;-77
2021/03/29 06:01:48;;;;;;;58.07;26.57;;;;;;;3.50;66.61;99863.98;115190;1202;23243;-77
2021/03/29 06:04:16;;;;;;;53.23;26.93;;;;;;;3.53;67.13;99857.44;115107;1203;26162;-76
2021/03/29 06:06:44;;;;;;;59.40;27.07;;;;;;;3.56;67.13;99863.34;115268;1200;23240;-77
2021/03/29 06:09:25;;;;;;;65.07;31.37;;;;;;;3.58;67.73;99861.31;115195;1200;27221;-77
2021/03/29 06:11:53;;;;;;;70.80;34.73;;;;;;;3.60;68.07;99864.69;115163;1202;23106;-77
2021/03/29 06:14:22;;;;;;;66.60;33.30;;;;;;;3.60;68.15;99864.69;115146;1202;24714;-77
2021/03/29 06:17:14;;;;;;;62.03;29.80;;;;;;;3.65;68.63;99853.42;115202;1199;23085;-77
2021/03/29 06:19:47;;;;;;;64.90;30.27;;;;;;;3.73;68.95;99852.58;115260;1196;23089;-77
2021/03/29 06:22:28;;;;;;;66.73;31.37;;;;;;;3.80;68.81;99853.60;115197;1198;23095;-77
2021/03/29 06:25:06;;;;;;;61.50;31.80;;;;;;;3.86;69.02;99849.39;115175;1200;26219;-77
2021/03/29 06:27:45;;;;;;;69.67;30.87;;;;;;;3.94;68.34;99846.71;115200;1200;23224;-77
2021/03/29 06:30:32;;;;;;;58.08;25.75;;;;;;;4.02;68.28;99846.73;115143;1202;23099;-77
2021/03/29 06:33:15;;;;;;;58.45;26.45;;;;;;;4.12;67.89;99846.55;115276;1202;23181;-76
2021/03/29 06:35:46;;;;;;;50.30;27.67;;;;;;;4.24;68.00;99849.75;115090;1202;23093;-76
2021/03/29 06:38:17;;;;;;;68.03;30.63;;;;;;;4.31;67.85;99850.75;115124;1200;26137;-76
2021/03/29 06:40:56;;;;;;;61.33;28.10;;;;;;;4.40;67.54;99843.50;114899;1202;23719;-76
2021/03/29 06:43:44;;;;;;;63.70;29.78;;;;;;;4.49;66.80;99851.39;115269;1196;27198;-76
2021/03/29 06:46:29;;;;;;;74.57;30.73;;;;;;;4.57;66.89;99847.85;115159;1202;23102;-76
2021/03/29 06:48:59;;;;;;;59.90;28.83;;;;;;;4.64;66.81;99840.75;115100;1202;23362;-76
2021/03/29 06:51:33;;;;;;;59.53;27.03;;;;;;;4.70;66.56;99842.75;115120;1199;23106;-76
2021/03/29 06:54:06;;;;;;;55.73;26.23;;;;;;;4.79;65.74;99848.13;115081;1202;23103;-76
2021/03/29 06:56:42;;;;;;;46.80;24.07;;;;;;;4.84;65.61;99835.80;115068;1200;23112;-76
2021/03/29 06:59:20;;;;;;;54.53;26.47;;;;;;;4.91;65.60;99844.88;115048;1202;23294;-76
2021/03/29 07:01:54;;;;;;;50.23;24.37;;;;;;;5.00;65.21;99850.26;115043;1196;23103;-76
2021/03/29 07:04:24;;;;;;;51.90;26.40;;;;;;;5.08;64.96;99845.67;115099;1202;23093;-76
2021/03/29 07:06:53;;;;;;;48.93;23.93;;;;;;;5.17;65.16;99838.38;114827;1200;24707;-76
2021/03/29 07:09:21;;;;;;;52.00;26.50;;;;;;;5.27;65.46;99844.38;114807;1202;23093;-76
2021/03/29 07:11:49;;;;;;;57.67;27.57;;;;;;;5.40;64.86;99842.97;115045;1202;23147;-76
2021/03/29 07:14:20;;;;;;;53.70;25.35;;;;;;;5.46;64.82;99843.11;115037;1202;23224;-76
2021/03/29 07:16:49;;;;;;;55.90;26.27;;;;;;;5.56;64.56;99840.20;115074;1202;23093;-76
2021/03/29 07:19:16;;;;;;;51.20;24.38;;;;;;;5.62;63.80;99833.23;114905;1196;23116;-76
2021/03/29 07:21:43;;;;;;;47.33;25.17;;;;;;;5.69;63.61;99845.00;115163;1202;23085;-76
2021/03/29 07:24:12;;;;;;;46.20;23.73;;;;;;;5.73;63.21;99842.78;115416;1197;23226;-76
2021/03/29 07:26:44;;;;;;;48.20;24.53;;;;;;;5.77;63.19;99842.26;115248;1199;23096;-76
2021/03/29 07:29:24;;;;;;;55.55;25.95;;;;;;;5.81;63.01;99851.68;115246;1202;23086;-76
2021/03/29 07:31:55;;;;;;;50.65;25.45;;;;;;;5.85;63.27;99835.94;115256;1202;23090;-76
2021/03/29 07:34:41;;;;;;;61.70;28.90;;;;;;;5.88;63.15;99843.70;115186;1197;23147;-76
2021/03/29 07:37:30;;;;;;;61.60;30.70;;;;;;;5.90;63.22;99845.19;115233;1198;23110;-76
2021/03/29 07:40:20;;;;;;;46.20;23.40;;;;;;;5.97;62.92;99849.92;115236;1197;23143;-76
2021/03/29 07:42:54;;;;;;;51.97;24.87;;;;;;;6.00;62.83;99857.64;115248;1202;23074;-76
2021/03/29 07:45:38;;;;;;;;;;;;;;;6.03;62.84;99863.53;115294;1204;25958;-76
2021/03/29 07:48:06;;;;;;;40.70;19.43;;;;;;;6.05;63.44;99858.78;115194;1202;21592;-76
2021/03/29 07:50:33;;;;;;;50.63;24.97;;;;;;;6.08;63.25;99852.19;115203;1196;27414;-76
2021/03/29 07:53:18;;;;;;;53.35;24.80;;;;;;;6.19;64.11;99859.86;115345;1202;26124;-76
2021/03/29 07:56:01;;;;;;;43.95;21.75;;;;;;;6.26;63.79;99855.40;115554;1196;23089;-76
2021/03/29 07:58:29;;;;;;;49.05;23.80;;;;;;;6.36;63.54;99857.86;115323;1196;23089;-76
2021/03/29 08:01:00;;;;;;;52.73;27.10;;;;;;;6.45;63.43;99854.05;115443;1200;24710;-76
2021/03/29 08:03:29;;;;;;;58.43;25.63;;;;;;;6.54;62.66;99854.81;115208;1202;24871;-76
2021/03/29 08:05:56;;;;;;;47.30;24.60;;;;;;;6.65;62.45;99864.34;115238;1197;25982;-76
2021/03/29 08:08:27;;;;;;;52.95;24.95;;;;;;;6.76;62.36;99863.88;115153;1197;23216;-76
2021/03/29 08:10:58;;;;;;;57.15;27.15;;;;;;;6.90;62.68;99862.21;115121;1202;23593;-76
2021/03/29 08:13:50;;;;;;;50.43;26.20;;;;;;;7.06;62.79;99849.52;115115;1202;23127;-76
2021/03/29 08:16:29;;;;;;;38.43;19.97;;;;;;;7.23;62.37;99853.71;115191;1202;23340;-76
2021/03/29 08:19:30;;;;;;;37.90;17.25;;;;;;;7.36;61.58;99853.03;115143;1197;26248;-76
2021/03/29 08:22:15;;;;;;;37.43;17.57;;;;;;;7.50;60.85;99856.74;115139;1197;23129;-76
2021/03/29 08:24:50;;;;;;;24.70;14.10;;;;;;;7.59;59.96;99850.17;115341;1196;23090;-76
2021/03/29 08:27:18;;;;;;;30.55;14.20;;;;;;;7.67;59.62;99846.52;115193;1202;23095;-76
2021/03/29 08:29:46;;;;;;;28.73;14.60;;;;;;;7.76;59.26;99854.33;115171;1201;23289;-76
2021/03/29 08:32:33;;;;;;;26.95;13.08;;;;;;;7.80;59.01;99847.48;115123;1197;24740;-76
2021/03/29 08:35:21;;;;;;;28.00;12.30;;;;;;;7.88;58.77;99846.53;115262;1196;24734;-76
2021/03/29 08:37:56;;;;;;;21.80;11.40;;;;;;;7.94;58.33;99844.91;115395;1196;23173;-76
2021/03/29 08:40:26;;;;;;;28.30;13.00;;;;;;;8.02;59.11;99846.65;115294;1197;23103;-76
2021/03/29 08:43:08;;;;;;;22.70;11.35;;;;;;;8.10;58.84;99849.23;115373;1202;23102;-76
2021/03/29 08:46:02;;;;;;;24.25;11.00;;;;;;;8.16;57.98;99851.16;115120;1202;25962;-75
2021/03/29 08:48:57;;;;;;;19.43;9.57;;;;;;;8.25;58.44;99851.86;115106;1201;23221;-74
2021/03/29 08:51:40;;;;;;;29.63;12.13;;;;;;;8.33;58.03;99846.31;115301;1202;25958;-75
2021/03/29 08:54:13;;;;;;;23.77;10.37;;;;;;;8.40;58.35;99855.34;115066;1202;26840;-75
2021/03/29 08:56:45;;;;;;;40.05;14.20;;;;;;;8.46;57.76;99846.43;115230;1202;24825;-75
2021/03/29 08:59:13;;;;;;;33.20;14.23;;;;;;;8.53;57.27;99847.35;115044;1201;23066;-76
2021/03/29 09:01:41;;;;;;;32.70;14.93;;;;;;;8.62;57.62;99852.61;115098;1200;23189;-75
2021/03/29 09:04:11;;;;;;;23.03;11.37;;;;;;;8.68;57.44;99859.98;115034;1200;23090;-75
2021/03/29 09:06:40;;;;;;;25.50;11.00;;;;;;;8.76;56.70;99859.81;115041;1200;23217;-75
2021/03/29 09:09:10;;;;;;;20.53;9.80;;;;;;;8.82;55.96;99861.75;115041;1202;24908;-75
2021/03/29 09:11:52;;;;;;;20.07;10.77;;;;;;;8.89;56.68;99864.52;115091;1200;23113;-75
2021/03/29 09:14:20;;;;;;;19.93;9.97;;;;;;;9.00;56.97;99855.80;115093;1200;23102;-75
2021/03/29 09:17:00;;;;;;;21.85;11.00;;;;;;;9.11;56.33;99849.78;114834;1200;23096;-75
2021/03/29 09:19:27;;;;;;;26.30;11.00;;;;;;;9.25;55.88;99849.86;115067;1200;26060;-75
2021/03/29 09:21:57;;;;;;;24.10;10.95;;;;;;;9.40;55.41;99852.42;114828;1202;23102;-75
2021/03/29 09:24:27;;;;;;;23.45;11.55;;;;;;;9.56;56.21;99854.81;115032;1199;23272;-75
2021/03/29 09:27:08;;;;;;;24.10;12.30;;;;;;;9.72;55.08;99852.74;114844;1202;23165;-75
2021/03/29 09:29:41;;;;;;;22.37;11.27;;;;;;;9.91;54.61;99859.28;115073;1202;23089;-75
2021/03/29 09:32:22;;;;;;;26.10;11.75;;;;;;;10.08;55.02;99853.23;115231;1202;23208;-75
2021/03/29 09:34:52;;;;;;;18.70;9.50;;;;;;;10.25;53.85;99852.83;115396;1199;23151;-75
2021/03/29 09:37:23;;;;;;;17.30;9.88;;;;;;;10.37;54.15;99853.09;114973;1199;23195;-75
2021/03/29 09:39:59;;;;;;;20.35;10.55;;;;;;;10.52;53.36;99850.17;115132;1202;26137;-75
2021/03/29 09:42:47;;;;;;;17.65;10.40;;;;;;;10.65;52.95;99852.87;115306;1197;23131;-75
2021/03/29 09:45:22;;;;;;;20.20;10.25;;;;;;;10.82;53.30;99847.83;115398;1203;23219;-76
2021/03/29 09:48:09;;;;;;;25.90;11.45;;;;;;;10.97;52.62;99853.02;115071;1201;26195;-76
2021/03/29 09:50:45;;;;;;;20.10;9.60;;;;;;;11.12;52.43;99845.45;115324;1199;26031;-75
2021/03/29 09:54:11;;;;;;;17.43;9.70;;;;;;;11.27;51.61;99842.45;115174;1200;26185;-76
2021/03/29 09:57:24;;;;;;;17.60;9.00;;;;;;;11.47;51.27;99825.98;115245;1197;23094;-76
2021/03/29 09:59:52;;;;;;;21.63;10.33;;;;;;;11.62;51.26;99833.08;115290;1196;26163;-76
2021/03/29 10:02:26;;;;;;;16.60;9.45;;;;;;;11.77;50.97;99834.47;115397;1202;23116;-76
2021/03/29 10:05:02;;;;;;;15.40;8.00;;;;;;;11.95;50.25;99824.70;115102;1201;23367;-75
2021/03/29 10:07:30;;;;;;;15.77;8.83;;;;;;;12.12;49.55;99823.11;115072;1201;24768;-75
2021/03/29 10:10:03;;;;;;;16.70;8.05;;;;;;;12.26;49.15;99823.85;115138;1196;27282;-75
2021/03/29 10:12:36;;;;;;;16.35;9.55;;;;;;;12.34;48.62;99818.13;115049;1201;23158;-76
2021/03/29 10:15:13;;;;;;;;;;;;;;;12.40;48.24;99816.39;115295;1205;23114;-75
2021/03/29 10:17:42;;;;;;;18.38;9.35;;;;;;;12.53;49.00;99815.42;115133;1202;24671;-76
2021/03/29 10:20:12;;;;;;;23.00;10.20;;;;;;;12.59;46.62;99803.61;114863;1202;23096;-75
2021/03/29 10:22:40;;;;;;;17.80;10.00;;;;;;;12.62;46.92;99808.61;115095;1196;26121;-75
2021/03/29 10:25:19;;;;;;;17.85;9.80;;;;;;;12.64;46.18;99809.24;115169;1201;25995;-75
2021/03/29 10:27:50;;;;;;;18.10;8.30;;;;;;;12.72;46.15;99813.56;115382;1202;26140;-76
2021/03/29 10:30:20;;;;;;;17.30;9.10;;;;;;;12.75;45.82;99799.45;115214;1200;23143;-75
2021/03/29 10:32:58;;;;;;;14.70;8.45;;;;;;;12.77;45.84;99794.59;115034;1201;24992;-75
2021/03/29 10:35:27;;;;;;;19.80;9.70;;;;;;;12.77;45.83;99805.53;114732;1202;23089;-75
2021/03/29 10:37:55;;;;;;;17.38;9.98;;;;;;;12.76;45.17;99801.11;114810;1202;23187;-77
2021/03/29 10:40:22;;;;;;;21.10;9.95;;;;;;;12.81;45.73;99800.45;115151;1196;23090;-75
2021/03/29 10:42:50;;;;;;;18.95;9.55;;;;;;;12.86;45.33;99795.14;115766;1197;26682;-75
2021/03/29 10:45:19;;;;;;;22.45;10.30;;;;;;;12.93;46.37;99798.63;115291;1197;23087;-75
2021/03/29 10:47:48;;;;;;;;;;;;;;;13.01;45.62;99792.02;115240;1204;23086;-75
2021/03/29 10:50:21;;;;;;;18.80;11.20;;;;;;;13.05;44.99;99782.28;115161;1202;21673;-75
2021/03/29 10:52:48;;;;;;;18.60;9.70;;;;;;;13.16;45.57;99789.73;115290;1196;25968;-75
2021/03/29 10:55:19;;;;;;;16.70;9.10;;;;;;;13.25;44.01;99791.09;115210;1201;23357;-75
2021/03/29 10:57:51;;;;;;;20.45;10.25;;;;;;;13.37;44.06;99791.19;115274;1197;27400;-75
2021/03/29 11:00:20;;;;;;;24.70;9.93;;;;;;;13.49;44.53;99788.48;115279;1201;23097;-76
2021/03/29 11:02:47;;;;;;;16.60;8.55;;;;;;;13.61;43.03;99788.55;115106;1196;23093;-75
2021/03/29 11:05:14;;;;;;;12.45;6.55;;;;;;;13.68;43.06;99800.23;115081;1202;24673;-75
2021/03/29 11:07:41;;;;;;;11.90;6.25;;;;;;;13.73;41.63;99789.42;115171;1196;26054;-75
2021/03/29 11:10:09;;;;;;;10.20;5.80;;;;;;;13.77;41.80;99785.14;115094;1200;27284;-75
2021/03/29 11:12:37;;;;;;;10.15;5.85;;;;;;;13.84;42.36;99788.62;115201;1200;27198;-75
2021/03/29 11:15:05;;;;;;;13.75;6.90;;;;;;;13.88;41.61;99782.68;115123;1197;23735;-76
2021/03/29 11:17:34;;;;;;;16.73;7.27;;;;;;;13.94;41.86;99784.50;115266;1196;25965;-76
2021/03/29 11:20:01;;;;;;;11.87;6.00;;;;;;;13.99;40.96;99785.45;115254;1197;23083;-75
2021/03/29 11:22:28;;;;;;;12.10;6.00;;;;;;;14.02;41.72;99784.14;115312;1196;23179;-76
2021/03/29 11:24:54;;;;;;;10.10;5.55;;;;;;;14.03;41.19;99778.43;115131;1196;23083;-76
2021/03/29 11:27:21;;;;;;;15.45;6.80;;;;;;;14.06;41.73;99771.66;115060;1200;26134;-76
2021/03/29 11:29:49;;;;;;;13.55;5.30;;;;;;;14.05;40.32;99773.55;115016;1201;23531;-77
2021/03/29 11:32:16;;;;;;;12.50;5.25;;;;;;;14.02;40.79;99773.19;114848;1197;23228;-75
2021/03/29 11:34:43;;;;;;;8.05;4.50;;;;;;;14.02;40.50;99787.73;115040;1197;25959;-75
2021/03/29 11:37:10;;;;;;;13.25;4.80;;;;;;;14.03;41.06;99783.08;115097;1202;23082;-75
2021/03/29 11:39:37;;;;;;;9.65;4.10;;;;;;;14.04;41.09;99774.64;115076;1202;23095;-75
2021/03/29 11:42:05;;;;;;;13.10;4.90;;;;;;;14.10;40.75;99777.50;115019;1202;23082;-75